createdAt,value
2023-04-14T00:02:58.841Z,22.2
2023-04-14T00:08:52.149Z,22.3
2023-04-14T00:14:44.474Z,21.9
2023-04-14T00:20:37.596Z,22
2023-04-14T00:26:28.852Z,21.6
2023-04-14T00:32:05.354Z,23
2023-04-14T00:37:57.086Z,23.3
2023-04-14T00:43:49.224Z,23.1
2023-04-14T00:49:40.690Z,22.3
2023-04-14T00:55:17.383Z,22.4
2023-04-14T01:00:54.214Z,22.1
2023-04-14T01:06:47.656Z,21.9
2023-04-14T01:12:39.056Z,21.9
2023-04-14T01:18:31.223Z,21.6
2023-04-14T01:24:07.031Z,23.1
2023-04-14T01:29:58.946Z,23.2
2023-04-14T01:35:51.517Z,22.8
2023-04-14T01:41:42.921Z,22.6
2023-04-14T01:47:19.548Z,22.3
2023-04-14T01:53:12.347Z,22
2023-04-14T01:59:04.044Z,21.9
2023-04-14T02:04:57.021Z,21.8
2023-04-14T02:10:48.387Z,22
2023-04-14T02:16:39.393Z,23
2023-04-14T02:22:31.280Z,23.2
2023-04-14T02:28:22.847Z,22.5
2023-04-14T02:34:13.476Z,22.4
2023-04-14T02:40:04.612Z,22.4
2023-04-14T02:45:56.003Z,21.9
2023-04-14T02:51:47.567Z,21.8
2023-04-14T02:57:39.016Z,21.8
2023-04-14T03:03:32.103Z,22
2023-04-14T03:09:23.075Z,23.2
2023-04-14T03:14:59.086Z,22.8
2023-04-14T03:20:34.987Z,22.5
2023-04-14T03:26:27.341Z,22.3
2023-04-14T03:32:19.237Z,22.4
2023-04-14T03:38:10.601Z,22
2023-04-14T03:44:03.062Z,22.1
2023-04-14T03:49:59.403Z,21.8
2023-04-14T03:55:52.995Z,22.4
2023-04-14T04:01:44.963Z,23.4
2023-04-14T04:07:39.220Z,22.6
2023-04-14T04:13:31.343Z,22.4
2023-04-14T04:19:24.471Z,22.2
2023-04-14T04:25:15.698Z,22.3
2023-04-14T04:31:22.102Z,22
2023-04-14T04:37:14.720Z,21.8
2023-04-14T04:42:51.032Z,21.7
2023-04-14T04:48:27.452Z,23.2
2023-04-14T04:54:02.969Z,23.6
2023-04-14T04:59:25.064Z,22.7
2023-04-14T05:05:02.864Z,22.3
2023-04-14T05:10:41.157Z,22.2
2023-04-14T05:16:17.769Z,22.1
2023-04-14T05:21:53.922Z,21.9
2023-04-14T05:28:08.295Z,21.6
2023-04-14T05:33:32.498Z,21.5
2023-04-14T05:39:09.192Z,22.8
2023-04-14T05:45:00.947Z,23.6
2023-04-14T05:50:37.153Z,22.8
2023-04-14T05:56:14.869Z,22.6
2023-04-14T06:02:09.118Z,22.4
2023-04-14T06:07:49.349Z,22.1
2023-04-14T06:13:41.085Z,22
2023-04-14T06:19:01.655Z,21.8
2023-04-14T06:24:53.418Z,21.6
2023-04-14T06:30:29.917Z,23.3
2023-04-14T06:36:35.289Z,24
2023-04-14T06:42:26.285Z,22.8
2023-04-14T06:48:19.688Z,22.6
2023-04-14T06:54:11.385Z,22.4
2023-04-14T07:00:03.504Z,22.1
2023-04-14T07:05:58.336Z,21.9
2023-04-14T07:11:49.841Z,21.7
2023-04-14T07:17:41.897Z,23.5
2023-04-14T07:23:19.872Z,24.3
2023-04-14T07:29:24.670Z,23.2
2023-04-14T07:35:17.038Z,22.7
2023-04-14T07:41:20.155Z,22.3
2023-04-14T07:46:56.053Z,22.1
2023-04-14T07:52:49.075Z,21.9
2023-04-14T07:58:48.521Z,22.8
2023-04-14T08:04:26.527Z,24.5
2023-04-14T08:10:18.254Z,23.4
2023-04-14T08:15:38.845Z,22.8
2023-04-14T08:21:00.165Z,22.5
2023-04-14T08:26:36.803Z,22.2
2023-04-14T08:32:29.243Z,24.3
2023-04-14T08:39:20.518Z,23.6
2023-04-14T08:45:12.914Z,22.8
2023-04-14T08:51:06.305Z,22.5
2023-04-14T08:56:42.742Z,22.4
2023-04-14T09:02:36.260Z,24.4
2023-04-14T09:08:30.594Z,23.8
2023-04-14T09:14:21.646Z,22.3
2023-04-14T09:22:09.143Z,21.9
2023-04-14T09:28:00.169Z,21.6
2023-04-14T09:33:36.223Z,21.4
2023-04-14T09:39:12.187Z,21.3
2023-04-14T09:45:03.945Z,21
2023-04-14T09:50:40.232Z,20.6
2023-04-14T09:56:33.461Z,20.5
2023-04-14T10:02:26.242Z,20.1
2023-04-14T10:08:04.651Z,20.2
2023-04-14T10:13:55.744Z,20.1
2023-04-14T10:19:48.151Z,19.9
2023-04-14T10:25:41.154Z,19.6
2023-04-14T10:31:34.867Z,19.6
2023-04-14T10:37:27.314Z,19.5
2023-04-14T10:43:02.903Z,19.5
2023-04-14T10:48:54.270Z,19.6
2023-04-14T10:54:32.314Z,19.4
2023-04-14T11:00:38.829Z,19.4
2023-04-14T11:06:32.750Z,19.2
2023-04-14T11:12:23.765Z,19.2
2023-04-14T11:18:12.898Z,19.1
2023-04-14T11:24:04.711Z,19.1
2023-04-14T11:29:56.421Z,19
2023-04-14T11:35:49.935Z,19.1
2023-04-14T11:41:26.257Z,19.2
2023-04-14T11:47:18.402Z,19.3
2023-04-14T11:52:54.182Z,19.1
2023-04-14T11:58:46.180Z,19.1
2023-04-14T12:04:23.925Z,19.2
2023-04-14T12:10:03.791Z,19.3
2023-04-14T12:15:55.696Z,19.3
2023-04-14T12:21:01.797Z,19.3
2023-04-14T12:26:38.336Z,19
2023-04-14T12:32:30.205Z,18.9
2023-04-14T12:38:23.604Z,18.9
2023-04-14T12:43:59.439Z,18.8
2023-04-14T12:49:52.470Z,18.8
2023-04-14T12:55:44.393Z,18.8
2023-04-14T13:01:36.496Z,18.6
2023-04-14T13:07:32.386Z,18.6
2023-04-14T13:13:25.921Z,18.6
2023-04-14T13:20:13.735Z,18.9
2023-04-14T13:26:06.733Z,18.9
2023-04-14T13:31:43.405Z,18.9
2023-04-14T13:37:36.148Z,18.9
2023-04-14T13:43:30.464Z,18.9
2023-04-14T13:49:26.003Z,18.9
2023-04-14T13:55:17.762Z,18.9
2023-04-14T14:01:12.327Z,18.9
2023-04-14T14:07:07.765Z,18.9
2023-04-14T14:13:02.159Z,18.9
2023-04-14T14:18:48.758Z,18.9
2023-04-14T14:24:25.787Z,18.9
2023-04-14T14:30:29.905Z,18.9
2023-04-14T14:36:25.725Z,18.9
2023-04-14T14:42:18.369Z,18.9
2023-04-14T14:48:15.943Z,19.1
2023-04-14T14:54:26.166Z,19.1
2023-04-14T15:00:03.907Z,19.1
2023-04-14T15:05:57.864Z,18.9
2023-04-14T15:11:49.230Z,19
2023-04-14T15:17:41.724Z,19.1
2023-04-14T15:23:33.216Z,18.9
2023-04-14T15:29:24.600Z,18.8
2023-04-14T15:35:16.853Z,19.1
2023-04-14T15:41:09.027Z,19.1
2023-04-14T15:47:03.115Z,19.1
2023-04-14T15:53:13.685Z,19.1
2023-04-14T15:59:05.789Z,18.9
2023-04-14T16:04:59.344Z,19.1
2023-04-14T16:10:51.561Z,19.2
2023-04-14T16:16:45.019Z,19.3
2023-04-14T16:22:37.884Z,19.2
2023-04-14T16:28:30.255Z,19.2
2023-04-14T16:34:22.162Z,19.2
2023-04-14T16:40:13.950Z,19.1
2023-04-14T16:46:05.307Z,19.1
2023-04-14T16:51:58.198Z,19.1
2023-04-14T16:57:50.177Z,19
2023-04-14T17:03:45.616Z,19.1
2023-04-14T17:09:39.596Z,19.1
2023-04-14T17:15:31.381Z,19.1
2023-04-14T17:21:32.309Z,19
2023-04-14T17:27:24.217Z,18.9
2023-04-14T17:33:16.174Z,19
2023-04-14T17:39:07.983Z,18.9
2023-04-14T17:44:59.564Z,18.9
2023-04-14T17:50:37.531Z,18.9
2023-04-14T17:56:29.393Z,18.9
2023-04-14T18:02:21.512Z,18.9
2023-04-14T18:08:14.507Z,18.8
2023-04-14T18:14:06.200Z,18.8
2023-04-14T18:19:57.701Z,18.8
2023-04-14T18:32:06.945Z,18.8
2023-04-14T18:37:58.909Z,18.8
2023-04-14T18:43:50.456Z,18.6
2023-04-14T18:49:26.725Z,18.6
2023-04-14T18:55:20.278Z,18.6
2023-04-14T19:06:57.902Z,18.8
2023-04-14T19:29:36.000Z,18.8
2023-04-14T19:41:04.610Z,18.6
2023-04-14T19:52:44.519Z,18.8
2023-04-14T19:58:37.889Z,18.9
2023-04-14T20:05:01.438Z,18.8
2023-04-14T20:10:53.183Z,18.8
2023-04-14T20:16:44.678Z,18.8
2023-04-14T20:22:36.721Z,18.8
2023-04-14T20:28:28.363Z,18.8
2023-04-14T20:34:20.635Z,18.8
2023-04-14T20:40:11.906Z,19.1
2023-04-14T20:46:03.191Z,22.6
2023-04-14T20:51:39.814Z,24.8
2023-04-14T20:57:30.588Z,24.3
2023-04-14T21:03:22.763Z,22.9
2023-04-14T21:09:16.157Z,24.1
2023-04-14T21:19:11.914Z,24.6
2023-04-14T21:25:03.593Z,22.8
2023-04-14T21:30:54.540Z,23.3
2023-04-14T21:36:30.716Z,24.1
2023-04-14T21:42:07.135Z,23.6
2023-04-14T21:47:58.165Z,22.6
2023-04-14T21:53:51.412Z,22.4
2023-04-14T22:00:32.782Z,23.6
2023-04-14T22:06:36.240Z,24.4
2023-04-14T22:12:28.708Z,23
2023-04-14T22:18:05.640Z,22.5
2023-04-14T22:23:41.347Z,22.3
2023-04-14T22:29:33.340Z,23.3
2023-04-14T22:34:54.686Z,24.4
2023-04-14T22:40:46.193Z,23.4
2023-04-14T22:46:38.099Z,22.7
2023-04-14T22:52:30.471Z,22.2
2023-04-14T22:58:27.968Z,22.4
2023-04-14T23:04:32.045Z,23.8
2023-04-14T23:10:24.341Z,23.4
2023-04-14T23:16:15.301Z,22.7
2023-04-14T23:22:05.929Z,22.5
2023-04-14T23:27:58.212Z,22.3
2023-04-14T23:33:34.192Z,23.3
2023-04-14T23:39:26.105Z,24.3
2023-04-14T23:45:17.432Z,23.1
2023-04-14T23:52:07.587Z,22.6
2023-04-14T23:57:44.141Z,22.3
